createdAt,value
2022-08-14T00:02:10.356Z,99.90
2022-08-14T00:04:42.017Z,99.90
2022-08-14T00:07:14.139Z,99.90
2022-08-14T00:10:02.504Z,99.90
2022-08-14T00:12:33.630Z,99.90
2022-08-14T00:15:07.895Z,99.90
2022-08-14T00:17:47.095Z,99.90
2022-08-14T00:20:24.017Z,99.90
2022-08-14T00:22:58.461Z,99.90
2022-08-14T00:25:41.450Z,99.90
2022-08-14T00:28:15.333Z,99.90
2022-08-14T00:30:46.479Z,99.90
2022-08-14T00:33:16.442Z,99.90
2022-08-14T00:36:37.490Z,99.90
2022-08-14T00:38:34.745Z,99.90
2022-08-14T00:41:04.604Z,99.90
2022-08-14T00:43:32.812Z,99.90
2022-08-14T00:46:05.074Z,99.90
2022-08-14T00:48:36.707Z,99.90
2022-08-14T00:51:07.026Z,99.90
2022-08-14T00:53:35.104Z,99.90
2022-08-14T00:56:06.879Z,99.90
2022-08-14T00:58:35.386Z,99.90
2022-08-14T01:01:09.158Z,99.90
2022-08-14T01:03:42.289Z,99.90
2022-08-14T01:06:12.198Z,99.90
2022-08-14T01:08:51.115Z,99.90
2022-08-14T01:11:31.827Z,99.90
2022-08-14T01:14:25.453Z,99.90
2022-08-14T01:16:55.582Z,99.90
2022-08-14T01:19:43.370Z,99.90
2022-08-14T01:22:13.412Z,99.90
2022-08-14T01:24:46.994Z,99.90
2022-08-14T01:27:18.172Z,99.90
2022-08-14T01:30:03.133Z,99.90
2022-08-14T01:32:37.599Z,99.90
2022-08-14T01:35:21.297Z,99.90
2022-08-14T01:38:00.389Z,99.90
2022-08-14T01:40:36.402Z,99.90
2022-08-14T01:43:18.688Z,99.90
2022-08-14T01:45:57.859Z,99.90
2022-08-14T01:48:44.428Z,99.90
2022-08-14T01:51:19.962Z,99.90
2022-08-14T01:53:54.719Z,99.90
2022-08-14T01:56:37.182Z,99.90
2022-08-14T01:59:09.796Z,99.90
2022-08-14T02:01:42.013Z,99.90
2022-08-14T02:04:56.295Z,99.90
2022-08-14T02:07:15.724Z,99.90
2022-08-14T02:09:45.392Z,99.90
2022-08-14T02:12:29.099Z,99.90
2022-08-14T02:15:00.546Z,99.90
2022-08-14T02:17:30.878Z,99.90
2022-08-14T02:19:59.231Z,99.90
2022-08-14T02:22:47.299Z,99.90
2022-08-14T02:25:16.908Z,99.90
2022-08-14T02:28:25.075Z,99.90
2022-08-14T02:30:34.834Z,99.90
2022-08-14T02:33:07.475Z,99.90
2022-08-14T02:35:40.712Z,99.90
2022-08-14T02:38:11.708Z,99.90
2022-08-14T02:40:59.241Z,99.90
2022-08-14T02:43:36.727Z,99.90
2022-08-14T02:46:20.436Z,99.90
2022-08-14T02:49:04.654Z,99.90
2022-08-14T02:51:34.420Z,99.90
2022-08-14T02:54:03.727Z,99.90
2022-08-14T02:57:16.655Z,99.90
2022-08-14T02:59:28.821Z,99.90
2022-08-14T03:01:57.492Z,99.90
2022-08-14T03:04:28.571Z,99.90
2022-08-14T03:06:57.925Z,99.90
2022-08-14T03:09:41.998Z,99.90
2022-08-14T03:12:31.610Z,99.90
2022-08-14T03:15:03.752Z,99.90
2022-08-14T03:17:41.270Z,99.90
2022-08-14T03:20:22.305Z,99.90
2022-08-14T03:22:51.592Z,99.90
2022-08-14T03:25:21.848Z,99.90
2022-08-14T03:27:58.734Z,99.90
2022-08-14T03:30:39.460Z,99.90
2022-08-14T03:33:10.293Z,99.90
2022-08-14T03:36:00.126Z,99.90
2022-08-14T03:39:15.269Z,99.90
2022-08-14T03:41:17.194Z,99.90
2022-08-14T03:43:46.705Z,99.90
2022-08-14T03:46:51.780Z,99.90
2022-08-14T03:49:16.478Z,99.90
2022-08-14T03:51:57.461Z,99.90
2022-08-14T03:58:23.709Z,99.90
2022-08-14T04:01:02.993Z,99.90
2022-08-14T04:03:31.077Z,99.90
2022-08-14T04:05:59.082Z,99.90
2022-08-14T04:08:30.396Z,99.90
2022-08-14T04:11:01.493Z,99.90
2022-08-14T04:13:31.862Z,99.90
2022-08-14T04:16:05.048Z,99.90
2022-08-14T04:18:35.041Z,99.90
2022-08-14T04:21:03.994Z,99.90
2022-08-14T04:23:33.261Z,99.90
2022-08-14T04:26:02.785Z,99.90
2022-08-14T04:29:08.307Z,99.90
2022-08-14T04:32:56.641Z,99.90
2022-08-14T04:34:16.888Z,99.90
2022-08-14T04:37:02.813Z,99.90
2022-08-14T04:39:57.324Z,99.90
2022-08-14T04:42:47.668Z,99.90
2022-08-14T04:45:21.137Z,99.90
2022-08-14T04:48:09.822Z,99.90
2022-08-14T04:50:44.891Z,99.90
2022-08-14T04:53:14.718Z,99.90
2022-08-14T04:55:43.302Z,99.90
2022-08-14T04:58:21.809Z,99.90
2022-08-14T05:00:59.508Z,99.90
2022-08-14T05:03:29.931Z,99.90
2022-08-14T05:06:01.120Z,99.90
2022-08-14T05:08:32.313Z,99.90
2022-08-14T05:13:11.918Z,99.90
2022-08-14T05:15:14.781Z,99.90
2022-08-14T05:17:54.045Z,99.90
2022-08-14T05:21:58.291Z,99.90
2022-08-14T05:23:24.406Z,99.90
2022-08-14T05:25:55.120Z,99.90
2022-08-14T05:28:24.161Z,99.90
2022-08-14T05:30:53.241Z,99.90
2022-08-14T05:33:24.402Z,99.90
2022-08-14T05:35:54.414Z,99.90
2022-08-14T05:38:31.927Z,99.90
2022-08-14T05:41:06.470Z,99.90
2022-08-14T05:43:41.222Z,99.90
2022-08-14T05:46:11.445Z,99.90
2022-08-14T05:48:43.897Z,99.90
2022-08-14T05:51:14.857Z,99.90
2022-08-14T05:53:43.607Z,99.90
2022-08-14T05:56:29.066Z,99.90
2022-08-14T05:58:57.291Z,99.90
2022-08-14T06:01:31.405Z,99.90
2022-08-14T06:04:00.187Z,99.90
2022-08-14T06:06:32.618Z,99.90
2022-08-14T06:09:04.703Z,99.90
2022-08-14T06:11:32.745Z,99.90
2022-08-14T06:14:00.804Z,99.90
2022-08-14T06:16:31.654Z,99.90
2022-08-14T06:19:01.219Z,99.90
2022-08-14T06:21:30.614Z,99.90
2022-08-14T06:24:00.951Z,99.90
2022-08-14T06:26:30.213Z,99.90
2022-08-14T06:28:58.764Z,99.90
2022-08-14T06:31:27.526Z,99.90
2022-08-14T06:35:11.219Z,99.90
2022-08-14T06:36:45.177Z,99.90
2022-08-14T06:39:14.361Z,99.90
2022-08-14T06:41:58.708Z,99.90
2022-08-14T06:44:30.360Z,99.90
2022-08-14T06:47:00.447Z,99.90
2022-08-14T06:49:30.428Z,99.90
2022-08-14T06:52:00.823Z,99.90
2022-08-14T06:54:31.167Z,99.90
2022-08-14T06:56:59.992Z,99.90
2022-08-14T06:59:28.221Z,99.90
2022-08-14T07:02:17.726Z,99.90
2022-08-14T07:05:05.119Z,99.90
2022-08-14T07:07:39.339Z,99.90
2022-08-14T07:10:07.951Z,99.90
2022-08-14T07:13:01.083Z,99.90
2022-08-14T07:15:33.715Z,99.90
2022-08-14T07:18:03.083Z,99.90
2022-08-14T07:20:32.104Z,99.90
2022-08-14T07:23:07.781Z,99.90
2022-08-14T07:25:37.502Z,99.90
2022-08-14T07:28:12.757Z,99.90
2022-08-14T07:30:51.191Z,99.90
2022-08-14T07:33:20.846Z,99.90
2022-08-14T07:35:58.195Z,99.90
2022-08-14T07:38:34.079Z,99.90
2022-08-14T07:41:06.870Z,99.90
2022-08-14T07:43:52.966Z,99.90
2022-08-14T07:46:29.373Z,99.90
2022-08-14T07:48:58.947Z,99.90
2022-08-14T07:51:36.535Z,99.90
2022-08-14T07:54:11.494Z,99.90
2022-08-14T07:56:48.282Z,99.90
2022-08-14T07:59:20.718Z,99.90
2022-08-14T08:02:08.774Z,99.90
2022-08-14T08:04:47.506Z,99.90
2022-08-14T08:07:17.602Z,99.90
2022-08-14T08:09:53.261Z,99.90
2022-08-14T08:12:26.200Z,99.90
2022-08-14T08:15:02.900Z,99.90
2022-08-14T08:17:38.919Z,99.90
2022-08-14T08:20:16.062Z,99.90
2022-08-14T08:22:49.713Z,99.90
2022-08-14T08:25:19.952Z,99.90
2022-08-14T08:27:58.718Z,99.90
2022-08-14T08:30:27.114Z,99.90
2022-08-14T08:32:58.135Z,99.90
2022-08-14T08:36:18.950Z,99.90
2022-08-14T08:39:18.489Z,99.90
2022-08-14T08:41:49.282Z,99.90
2022-08-14T08:44:31.563Z,99.90
2022-08-14T08:47:05.674Z,99.90
2022-08-14T08:49:58.971Z,99.90
2022-08-14T08:52:42.359Z,99.90
2022-08-14T08:55:18.098Z,99.90
2022-08-14T08:57:48.720Z,99.90
2022-08-14T09:00:24.948Z,99.90
2022-08-14T09:02:57.509Z,99.90
2022-08-14T09:05:26.332Z,99.90
2022-08-14T09:11:41.919Z,99.90
2022-08-14T09:14:11.369Z,99.90
2022-08-14T09:16:39.433Z,99.90
2022-08-14T09:19:07.921Z,99.90
2022-08-14T09:21:37.293Z,99.90
2022-08-14T09:24:26.542Z,99.90
2022-08-14T09:26:58.938Z,99.90
2022-08-14T09:29:28.687Z,99.90
2022-08-14T09:31:58.200Z,99.90
2022-08-14T09:34:47.438Z,99.90
2022-08-14T09:37:35.417Z,99.90
2022-08-14T09:40:10.115Z,99.90
2022-08-14T09:42:51.277Z,99.90
2022-08-14T09:45:23.893Z,99.90
2022-08-14T09:47:52.801Z,99.90
2022-08-14T09:50:25.767Z,99.90
2022-08-14T09:52:56.722Z,99.90
2022-08-14T09:55:26.301Z,99.90
2022-08-14T09:58:19.228Z,99.90
2022-08-14T10:00:50.222Z,99.90
2022-08-14T10:03:30.362Z,99.90
2022-08-14T10:06:09.387Z,99.90
2022-08-14T10:08:51.230Z,99.90
2022-08-14T10:11:23.595Z,99.90
2022-08-14T10:13:54.491Z,99.90
2022-08-14T10:16:27.574Z,99.90
2022-08-14T10:19:09.423Z,99.90
2022-08-14T10:21:38.914Z,99.90
2022-08-14T10:24:36.180Z,99.90
2022-08-14T10:27:06.562Z,99.90
2022-08-14T10:29:36.055Z,99.90
2022-08-14T10:32:51.920Z,99.90
2022-08-14T10:35:23.201Z,99.90
2022-08-14T10:38:01.674Z,99.90
2022-08-14T10:40:44.197Z,99.90
2022-08-14T10:43:22.893Z,99.90
2022-08-14T10:46:03.260Z,99.90
2022-08-14T10:48:57.137Z,99.90
2022-08-14T10:51:30.286Z,99.90
2022-08-14T10:54:26.032Z,99.90
2022-08-14T10:56:57.753Z,99.90
2022-08-14T10:59:30.967Z,99.90
2022-08-14T11:02:03.558Z,99.90
2022-08-14T11:04:32.124Z,99.90
2022-08-14T11:07:02.716Z,99.90
2022-08-14T11:09:34.133Z,99.90
2022-08-14T11:12:35.132Z,99.90
2022-08-14T11:14:59.273Z,99.90
2022-08-14T11:17:32.048Z,99.90
2022-08-14T11:20:01.431Z,99.90
2022-08-14T11:22:56.232Z,99.90
2022-08-14T11:25:21.378Z,99.90
2022-08-14T11:27:49.652Z,99.90
2022-08-14T11:30:50.076Z,99.90
2022-08-14T11:33:09.192Z,99.70
2022-08-14T11:35:47.210Z,99.40
2022-08-14T11:38:18.142Z,98.50
2022-08-14T11:40:47.550Z,99.90
2022-08-14T11:43:16.355Z,99.90
2022-08-14T11:45:48.370Z,99.90
2022-08-14T11:49:02.261Z,99.50
2022-08-14T11:51:05.499Z,99.90
2022-08-14T11:53:37.520Z,99.90
2022-08-14T11:56:11.116Z,99.90
2022-08-14T11:58:39.527Z,99.90
2022-08-14T12:01:09.510Z,99.90
2022-08-14T12:03:51.570Z,99.90
2022-08-14T12:06:29.460Z,99.90
2022-08-14T12:09:15.034Z,99.90
2022-08-14T12:11:47.409Z,99.90
2022-08-14T12:14:34.600Z,99.90
2022-08-14T12:17:11.699Z,99.90
2022-08-14T12:19:51.230Z,97.80
2022-08-14T12:22:34.173Z,99.30
2022-08-14T12:25:10.018Z,99.90
2022-08-14T12:27:41.678Z,98.60
2022-08-14T12:30:15.067Z,99.70
2022-08-14T12:32:49.352Z,98.50
2022-08-14T12:35:18.956Z,98.30
2022-08-14T12:37:49.388Z,98.80
2022-08-14T12:40:24.399Z,99.90
2022-08-14T12:42:56.517Z,98.70
2022-08-14T12:45:31.662Z,98.00
2022-08-14T12:48:01.932Z,98.40
2022-08-14T12:50:52.201Z,97.50
2022-08-14T12:53:21.119Z,98.20
2022-08-14T12:56:22.260Z,97.70
2022-08-14T12:58:51.754Z,97.70
2022-08-14T13:01:22.234Z,97.80
2022-08-14T13:03:51.852Z,98.00
2022-08-14T13:06:20.554Z,97.70
2022-08-14T13:08:53.063Z,95.40
2022-08-14T13:11:23.757Z,99.10
2022-08-14T13:13:52.655Z,97.80
2022-08-14T13:16:33.859Z,97.50
2022-08-14T13:19:11.041Z,98.60
2022-08-14T13:21:58.789Z,97.10
2022-08-14T13:24:28.054Z,98.80
2022-08-14T13:26:59.324Z,97.20
2022-08-14T13:29:29.654Z,98.20
2022-08-14T13:31:59.489Z,97.20
2022-08-14T13:34:29.472Z,97.80
2022-08-14T13:37:04.220Z,99.00
2022-08-14T13:39:36.291Z,95.80
2022-08-14T13:42:13.195Z,97.40
2022-08-14T13:44:42.787Z,95.70
2022-08-14T13:47:12.200Z,95.90
2022-08-14T13:49:57.745Z,95.50
2022-08-14T13:52:59.159Z,95.20
2022-08-14T13:55:16.531Z,94.10
2022-08-14T13:57:49.724Z,93.60
2022-08-14T14:00:33.007Z,95.20
2022-08-14T14:03:05.659Z,95.70
2022-08-14T14:05:52.835Z,95.60
2022-08-14T14:08:46.995Z,96.20
2022-08-14T14:11:10.576Z,95.70
2022-08-14T14:13:42.067Z,95.20
2022-08-14T14:16:15.559Z,96.80
2022-08-14T14:18:56.331Z,95.60
2022-08-14T14:21:28.756Z,95.10
2022-08-14T14:23:57.536Z,95.40
2022-08-14T14:26:26.978Z,95.20
2022-08-14T14:28:57.482Z,94.80
2022-08-14T14:31:29.591Z,95.50
2022-08-14T14:34:00.269Z,95.90
2022-08-14T14:36:29.229Z,95.30
2022-08-14T14:38:58.787Z,95.80
2022-08-14T14:41:38.283Z,96.50
2022-08-14T14:44:09.226Z,96.90
2022-08-14T14:46:41.607Z,95.30
2022-08-14T14:49:14.880Z,95.40
2022-08-14T14:51:46.910Z,97.20
2022-08-14T14:54:30.286Z,95.50
2022-08-14T14:57:02.144Z,95.50
2022-08-14T14:59:33.261Z,95.80
2022-08-14T15:02:06.391Z,95.90
2022-08-14T15:04:37.839Z,97.60
2022-08-14T15:07:06.428Z,94.90
2022-08-14T15:09:34.855Z,96.40
2022-08-14T15:12:16.030Z,96.60
2022-08-14T15:14:54.614Z,95.80
2022-08-14T15:17:28.395Z,95.90
2022-08-14T15:20:04.947Z,98.10
2022-08-14T15:22:33.004Z,95.80
2022-08-14T15:25:01.535Z,95.00
2022-08-14T15:27:31.582Z,93.70
2022-08-14T15:30:01.655Z,94.10
2022-08-14T15:32:30.717Z,94.40
2022-08-14T15:35:00.658Z,94.00
2022-08-14T15:37:33.757Z,94.70
2022-08-14T15:40:02.245Z,93.70
2022-08-14T15:42:30.515Z,93.30
2022-08-14T15:45:01.437Z,95.00
2022-08-14T15:47:33.159Z,93.80
2022-08-14T15:50:03.088Z,94.40
2022-08-14T15:52:34.836Z,94.50
2022-08-14T15:55:05.290Z,94.40
2022-08-14T15:57:34.007Z,95.40
2022-08-14T16:00:40.702Z,93.70
2022-08-14T16:03:11.655Z,94.00
2022-08-14T16:05:39.894Z,94.90
2022-08-14T16:08:26.644Z,93.00
2022-08-14T16:10:57.276Z,94.80
2022-08-14T16:13:41.293Z,95.40
2022-08-14T16:16:34.572Z,94.50
2022-08-14T16:19:07.266Z,93.40
2022-08-14T16:21:37.628Z,94.20
2022-08-14T16:24:06.421Z,94.10
2022-08-14T16:26:34.944Z,94.50
2022-08-14T16:29:07.457Z,94.10
2022-08-14T16:31:36.809Z,95.30
2022-08-14T16:34:44.017Z,94.40
2022-08-14T16:36:55.102Z,94.90
2022-08-14T16:39:23.283Z,95.20
2022-08-14T16:41:52.517Z,95.70
2022-08-14T16:44:22.089Z,95.00
2022-08-14T16:47:02.293Z,95.20
2022-08-14T16:50:02.941Z,95.30
2022-08-14T16:52:25.990Z,95.70
2022-08-14T16:55:11.174Z,95.40
2022-08-14T16:57:48.024Z,95.10
2022-08-14T17:00:28.842Z,95.20
2022-08-14T17:03:11.442Z,95.00
2022-08-14T17:05:43.503Z,95.50
2022-08-14T17:08:41.437Z,96.50
2022-08-14T17:11:10.547Z,95.30
2022-08-14T17:13:59.738Z,95.20
2022-08-14T17:16:31.044Z,94.90
2022-08-14T17:19:01.770Z,96.70
2022-08-14T17:21:37.333Z,96.40
2022-08-14T17:26:55.937Z,96.70
2022-08-14T17:29:29.531Z,99.80
2022-08-14T17:32:02.221Z,99.90
2022-08-14T17:34:45.117Z,99.90
2022-08-14T17:37:26.372Z,99.90
2022-08-14T17:40:02.162Z,99.90
2022-08-14T17:42:58.999Z,99.90
2022-08-14T17:45:46.970Z,99.90
2022-08-14T17:49:15.130Z,99.90
2022-08-14T17:51:23.733Z,99.90
2022-08-14T17:54:02.914Z,99.90
2022-08-14T17:56:32.443Z,99.90
2022-08-14T17:59:02.452Z,99.90
2022-08-14T18:01:35.647Z,99.90
2022-08-14T18:04:05.530Z,99.90
2022-08-14T18:06:39.482Z,99.90
2022-08-14T18:09:25.051Z,99.90
2022-08-14T18:11:55.212Z,99.90
2022-08-14T18:14:32.309Z,99.90
2022-08-14T18:17:02.325Z,99.90
2022-08-14T18:19:34.545Z,99.90
2022-08-14T18:22:05.803Z,99.90
2022-08-14T18:24:55.207Z,99.90
2022-08-14T18:27:24.060Z,99.90
2022-08-14T18:29:55.666Z,99.90
2022-08-14T18:32:46.958Z,99.90
2022-08-14T18:35:16.167Z,99.90
2022-08-14T18:37:55.547Z,99.90
2022-08-14T18:40:34.756Z,99.90
2022-08-14T18:43:04.019Z,99.90
2022-08-14T18:45:33.087Z,99.90
2022-08-14T18:48:28.664Z,99.90
2022-08-14T18:51:15.057Z,99.90
2022-08-14T18:53:55.803Z,99.90
2022-08-14T18:56:58.978Z,99.90
2022-08-14T18:59:36.219Z,99.90
2022-08-14T19:02:43.116Z,99.90
2022-08-14T19:05:11.638Z,99.90
2022-08-14T19:07:41.022Z,99.90
2022-08-14T19:10:17.134Z,99.90
2022-08-14T19:13:12.320Z,99.90
2022-08-14T19:15:42.694Z,99.90
2022-08-14T19:18:26.540Z,99.90
2022-08-14T19:20:58.195Z,99.90
2022-08-14T19:23:42.316Z,99.90
2022-08-14T19:26:35.578Z,99.90
2022-08-14T19:29:38.224Z,99.90
2022-08-14T19:32:39.775Z,99.90
2022-08-14T19:35:48.703Z,99.90
2022-08-14T19:38:53.901Z,99.90
2022-08-14T19:41:29.615Z,99.90
2022-08-14T19:44:10.289Z,99.90
2022-08-14T19:46:59.788Z,99.90
2022-08-14T19:50:07.857Z,99.90
2022-08-14T19:52:22.356Z,99.90
2022-08-14T19:54:51.511Z,99.90
2022-08-14T19:57:21.419Z,99.90
2022-08-14T19:59:57.855Z,99.90
2022-08-14T20:02:29.997Z,99.90
2022-08-14T20:04:59.572Z,99.90
2022-08-14T20:07:58.843Z,99.90
2022-08-14T20:11:02.961Z,99.90
2022-08-14T20:13:15.463Z,99.90
2022-08-14T20:15:52.088Z,99.90
2022-08-14T20:18:49.350Z,99.90
2022-08-14T20:21:15.949Z,99.90
2022-08-14T20:23:44.012Z,99.90
2022-08-14T20:26:31.814Z,99.90
2022-08-14T20:29:04.752Z,99.90
2022-08-14T20:31:37.239Z,99.90
2022-08-14T20:34:18.696Z,99.90
2022-08-14T20:37:02.956Z,99.90
2022-08-14T20:39:34.403Z,99.90
2022-08-14T20:42:25.190Z,99.90
2022-08-14T20:45:13.319Z,99.90
2022-08-14T20:47:48.352Z,99.90
2022-08-14T20:50:28.679Z,99.90
2022-08-14T20:52:57.639Z,99.90
2022-08-14T20:55:29.320Z,99.90
2022-08-14T20:57:59.059Z,99.90
2022-08-14T21:00:36.896Z,99.90
2022-08-14T21:03:29.872Z,99.90
2022-08-14T21:05:58.474Z,99.90
2022-08-14T21:08:26.836Z,99.90
2022-08-14T21:10:56.790Z,99.90
2022-08-14T21:14:08.894Z,99.90
2022-08-14T21:16:34.739Z,99.90
2022-08-14T21:19:03.905Z,99.90
2022-08-14T21:21:40.512Z,99.90
2022-08-14T21:24:40.017Z,99.90
2022-08-14T21:27:11.975Z,99.90
2022-08-14T21:29:54.323Z,99.90
2022-08-14T21:32:35.245Z,99.90
2022-08-14T21:35:08.657Z,99.90
2022-08-14T21:37:46.021Z,99.90
2022-08-14T21:40:29.707Z,99.90
2022-08-14T21:43:04.957Z,99.90
2022-08-14T21:45:35.333Z,99.90
2022-08-14T21:48:10.436Z,99.90
2022-08-14T21:51:02.040Z,99.90
2022-08-14T21:53:30.901Z,99.90
2022-08-14T21:55:59.319Z,99.90
2022-08-14T21:58:52.364Z,99.90
2022-08-14T22:01:19.404Z,99.90
2022-08-14T22:03:55.019Z,99.90
2022-08-14T22:06:29.128Z,99.90
2022-08-14T22:08:58.167Z,99.90
2022-08-14T22:11:27.286Z,99.90
2022-08-14T22:13:56.077Z,99.90
2022-08-14T22:17:00.076Z,99.90
2022-08-14T22:19:17.053Z,99.90
2022-08-14T22:21:49.071Z,99.90
2022-08-14T22:24:25.932Z,99.90
2022-08-14T22:27:07.286Z,99.90
2022-08-14T22:29:36.042Z,99.90
2022-08-14T22:32:07.034Z,99.90
2022-08-14T22:34:35.533Z,99.90
2022-08-14T22:37:10.287Z,99.90
2022-08-14T22:40:15.325Z,99.90
2022-08-14T22:42:26.799Z,99.90
2022-08-14T22:45:03.934Z,99.90
2022-08-14T22:47:40.268Z,99.90
2022-08-14T22:50:31.049Z,99.90
2022-08-14T22:53:00.420Z,99.90
2022-08-14T22:55:28.560Z,99.90
2022-08-14T22:57:56.624Z,99.90
2022-08-14T23:00:30.200Z,99.90
2022-08-14T23:03:01.501Z,99.90
2022-08-14T23:05:39.699Z,99.90
2022-08-14T23:08:56.352Z,99.90
2022-08-14T23:11:03.104Z,99.90
2022-08-14T23:13:31.230Z,99.90
2022-08-14T23:15:59.322Z,99.90
2022-08-14T23:18:29.567Z,99.90
2022-08-14T23:20:58.212Z,99.90
2022-08-14T23:23:27.661Z,99.90
2022-08-14T23:26:00.101Z,99.90
2022-08-14T23:28:34.820Z,99.90
2022-08-14T23:31:34.173Z,99.90
2022-08-14T23:34:07.172Z,99.90
2022-08-14T23:36:37.513Z,99.90
2022-08-14T23:39:29.445Z,99.90
2022-08-14T23:42:02.514Z,99.90
2022-08-14T23:44:35.380Z,99.90
2022-08-14T23:47:10.432Z,99.90
2022-08-14T23:49:59.871Z,99.90
2022-08-14T23:53:05.975Z,99.90
2022-08-14T23:55:18.280Z,99.90
2022-08-14T23:57:57.860Z,99.90
